AirNav   $300 off a Bose A20
 
 381 users online  

19NY Four Seasons Airport
Reading, New York, USA

GOING TO READING?


FAA INFORMATION EFFECTIVE 18 JULY 2019

Location

FAA Identifier: 19NY
Lat/Long: 42-24-22.2390N / 077-57-39.0100W
42-24.370650N / 077-57.650167W
42.4061775 / -77.9608361
(estimated)
Elevation: 1650 ft. / 503 m (estimated)
Variation: 11W (1990)
From city: 4 miles SW of READING, NY
Time zone: UTC -4 (UTC -5 during Standard Time)
Zip code: 14709

Airport Operations

Airport use: Private use. Permission required prior to landing
Activation date: 12/1993
Control tower: no
ARTCC: CLEVELAND CENTER
FSS: BUFFALO FLIGHT SERVICE STATION
Attendance: UNATNDD
Wind indicator: yes
Segmented circle: no

Airport Communications

WX AWOS-3 at HTF (12 nm E): 118.475 (607-324-9138)
WX ASOS at DSV (15 nm NE): 118.325 (585-335-2380)
WX ASOS at ELZ (18 nm S): 119.275 (585-593-0203)

Nearby radio navigation aids

VOR radial/distance  VOR name  Freq  Var
ELZr014/19.1WELLSVILLE VORTAC111.4009W
GEEr210/27.6GENESEO VOR/DME108.2009W

Airport Services

Runway Information

Runway 17/35

Dimensions: 2500 x 60 ft. / 762 x 18 m
Surface: turf
RUNWAY 17  RUNWAY 35
Traffic pattern: leftleft
Obstructions: 25 ft. trees, 200 ft. from runway20 ft. trees, 200 ft. from runway
80 FT RADIO TWR SOUTH.

Airport Ownership and Management from official FAA records

Ownership: Privately-owned
Owner: EDWIN J KOCH
3632 COUNTY ROAD 27
WATKINS GLEN, NY 14891
Phone 607-535-9329
Manager: EDWIN J KOCH
3632 COUNTY ROAD 27
WATKINS GLEN, NY 14891
Phone 607-535-9329

Airport Operational Statistics

Aircraft based on the field: 1
Single engine airplanes: 1
    

Additional Remarks

FOR CD CTC CLEVELAND ARTCC AT 440-774-0490.

Instrument Procedures

There are no published instrument procedures at 19NY.

Some nearby airports with instrument procedures:

KHTF - Hornell Municipal Airport (12 nm E)
KDSV - Dansville Municipal Airport (15 nm NE)
KELZ - Wellsville Municipal Airport, Tarantine Field (18 nm S)
KOLE - Cattaraugus County-Olean Airport (21 nm SW)
5G0 - Le Roy Airport (35 nm N)
 
Loc | Ops | Rwys | IFR | FBO | Links
Com | Nav | Svcs | Stats | Notes
Area around 19NY (Four Seasons Airport)
 
Road maps at: MapQuest Bing Google
 
Aerial photo
No photo
 
Sectional chart

 
Airport distance calculator
Flying to Four Seasons Airport? Find the distance to fly.

From to 19NY

Sunrise and sunset
Times for 19-Jul-2019
 Local
(UTC-4)
 Zulu
(UTC)
Morning civil twilight05:1909:19
Sunrise05:5309:53
Sunset20:4400:44
Evening civil twilight21:1701:17

Current date and time
Zulu (UTC)  19-Jul-2019 09:04:51
Local (UTC-4)  19-Jul-2019 05:04:51
 
METAR
KDSV 
14nm NE 
190854Z AUTO 14004KT 10SM CLR 22/20 A2987 RMK AO2 SLP117 T02220200 55008
KELZ 
18nm S 
190856Z AUTO 23008KT 10SM CLR 21/19 A2996 RMK AO2 SLP130 T02110194 56006 $
KOLE 
21nm SW 
190855Z AUTO 22007KT 10SM SCT042 20/20 A2994 RMK AO2
TAF
KROC 
44nm N 
190520Z 1906/2006 22005KT P6SM SCT200 FM191400 24012KT P6SM BKN080 FM191800 25013G20KT P6SM SCT100 FM200000 25012KT P6SM VCTS BKN050CB FM200300 24008KT P6SM SCT050
KBUF 
46nm NW 
190520Z 1906/2006 21007KT P6SM SCT250 FM191400 23013G20KT P6SM BKN080 FM191800 23015G25KT P6SM SCT100 FM192300 24013G21KT P6SM VCTS BKN050CB FM200200 23010KT P6SM SCT050
KBFD 
47nm SW 
190528Z 1906/2006 22005KT P6SM SKC TEMPO 1909/1911 2SM BR FM191700 25008KT P6SM VCSH BKN040 FM200100 26005KT P6SM SCT035
KELM 
50nm E 
190704Z 1907/2006 VRB02KT P6SM FEW150 TEMPO 1907/1910 1SM BR FEW002 FM191000 VRB02KT 1/2SM FG VV002 FM191200 23007KT P6SM FEW050 BKN220 FM191900 25009KT P6SM BKN060 PROB30 2000/2003 -TSRA OVC050CB
NOTAMs
Click for the latest NOTAMs
NOTAMs are issued by the DoD/FAA and will open in a separate window not controlled by AirNav.

 

 
 

Would you like to see your business listed on this page?

 If your business provides an interesting product or service to pilots, flight crews, aircraft, or users of the Four Seasons Airport, you should consider listing it here.  To start the listing process, click on the button below
 
Add a business
 

Other Pages about Four Seasons Airport

Update a link
 
Copyright © AirNav, LLC. All rights reserved. Privacy Policy  Contact